Terminal Aerodrome Forecast
Issued by NWS Cleveland, OH

Home | Current Version | Previous Version | Text Only | Print | Product List | Glossary On
Versions: 1 2 3 4 5 6 7 8 9 10 11 12 13 14 15 16 17 18
000
FTUS41 KCLE 270500
TAFERI
TAF
KERI 270528Z 2706/2806 19009KT P6SM OVC250
     FM271000 19006KT P6SM OVC035
      TEMPO 2712/2716 OVC030
     FM271700 19010G20KT P6SM OVC070
     FM272300 20010G20KT P6SM -RA OVC025
     FM280500 21010G20KT P6SM -RA OVC005=

USA.gov is the U.S. government's official web portal to all federal, state and local government web resources and services.